sensor_id;sensor_type;location;lat;lon;timestamp;temperature;humidity
40589;DHT22;26297;49.450;6.640;2024-01-07T00:00:44;12.30;99.90
40589;DHT22;26297;49.450;6.640;2024-01-07T00:03:47;12.70;99.90
40589;DHT22;26297;49.450;6.640;2024-01-07T00:06:50;12.40;99.90
40589;DHT22;26297;49.450;6.640;2024-01-07T00:09:53;12.30;99.90
40589;DHT22;26297;49.450;6.640;2024-01-07T00:12:56;12.70;99.90
40589;DHT22;26297;49.450;6.640;2024-01-07T00:16:00;13.50;99.90
40589;DHT22;26297;49.450;6.640;2024-01-07T00:19:03;12.10;99.90
40589;DHT22;26297;49.450;6.640;2024-01-07T00:22:06;12.20;99.90
40589;DHT22;26297;49.450;6.640;2024-01-07T00:25:09;12.50;99.90
40589;DHT22;26297;49.450;6.640;2024-01-07T00:28:12;12.90;99.90
40589;DHT22;26297;49.450;6.640;2024-01-07T00:31:15;12.20;99.90
40589;DHT22;26297;49.450;6.640;2024-01-07T00:34:18;12.10;99.90
40589;DHT22;26297;49.450;6.640;2024-01-07T00:37:21;12.10;99.90
40589;DHT22;26297;49.450;6.640;2024-01-07T00:40:24;12.20;99.90
40589;DHT22;26297;49.450;6.640;2024-01-07T00:43:27;12.70;99.90
40589;DHT22;26297;49.450;6.640;2024-01-07T00:46:30;12.10;99.90
40589;DHT22;26297;49.450;6.640;2024-01-07T00:49:39;12.40;99.90
40589;DHT22;26297;49.450;6.640;2024-01-07T00:52:43;13.00;99.90
40589;DHT22;26297;49.450;6.640;2024-01-07T00:55:48;13.00;99.90
40589;DHT22;26297;49.450;6.640;2024-01-07T00:58:51;12.10;99.90
40589;DHT22;26297;49.450;6.640;2024-01-07T01:01:54;12.80;99.90
40589;DHT22;26297;49.450;6.640;2024-01-07T01:04:57;12.10;99.90
40589;DHT22;26297;49.450;6.640;2024-01-07T01:08:00;12.10;99.90
40589;DHT22;26297;49.450;6.640;2024-01-07T01:11:03;12.10;99.90
40589;DHT22;26297;49.450;6.640;2024-01-07T01:14:06;12.10;99.90
40589;DHT22;26297;49.450;6.640;2024-01-07T01:17:09;12.10;99.90
40589;DHT22;26297;49.450;6.640;2024-01-07T01:20:12;12.20;99.90
40589;DHT22;26297;49.450;6.640;2024-01-07T01:23:19;12.10;99.90
40589;DHT22;26297;49.450;6.640;2024-01-07T01:26:22;12.80;99.90
40589;DHT22;26297;49.450;6.640;2024-01-07T01:29:25;10.70;99.90
40589;DHT22;26297;49.450;6.640;2024-01-07T01:32:28;12.60;99.90
40589;DHT22;26297;49.450;6.640;2024-01-07T01:35:31;13.30;99.90
40589;DHT22;26297;49.450;6.640;2024-01-07T01:38:34;13.10;99.90
40589;DHT22;26297;49.450;6.640;2024-01-07T01:41:38;12.10;99.90
40589;DHT22;26297;49.450;6.640;2024-01-07T01:44:41;12.20;99.90
40589;DHT22;26297;49.450;6.640;2024-01-07T01:47:45;12.20;99.90
40589;DHT22;26297;49.450;6.640;2024-01-07T01:50:49;12.10;99.90
40589;DHT22;26297;49.450;6.640;2024-01-07T01:53:52;12.30;99.90
40589;DHT22;26297;49.450;6.640;2024-01-07T01:56:56;12.10;99.90
40589;DHT22;26297;49.450;6.640;2024-01-07T02:00:00;12.20;99.90
40589;DHT22;26297;49.450;6.640;2024-01-07T02:03:06;12.20;99.90
40589;DHT22;26297;49.450;6.640;2024-01-07T02:06:09;12.10;99.90
40589;DHT22;26297;49.450;6.640;2024-01-07T02:09:15;12.80;99.90
40589;DHT22;26297;49.450;6.640;2024-01-07T02:12:18;12.10;99.90
40589;DHT22;26297;49.450;6.640;2024-01-07T02:15:21;12.20;99.90
40589;DHT22;26297;49.450;6.640;2024-01-07T02:18:24;12.20;99.90
40589;DHT22;26297;49.450;6.640;2024-01-07T02:21:27;12.70;99.90
40589;DHT22;26297;49.450;6.640;2024-01-07T02:24:31;12.10;99.90
40589;DHT22;26297;49.450;6.640;2024-01-07T02:27:35;12.00;99.90
40589;DHT22;26297;49.450;6.640;2024-01-07T02:30:38;12.10;99.90
40589;DHT22;26297;49.450;6.640;2024-01-07T02:33:41;12.20;99.90
40589;DHT22;26297;49.450;6.640;2024-01-07T02:36:44;12.10;99.90
40589;DHT22;26297;49.450;6.640;2024-01-07T02:39:47;12.10;99.90
40589;DHT22;26297;49.450;6.640;2024-01-07T02:42:50;11.30;99.90
40589;DHT22;26297;49.450;6.640;2024-01-07T02:45:53;12.10;99.90
40589;DHT22;26297;49.450;6.640;2024-01-07T02:48:56;12.10;99.90
40589;DHT22;26297;49.450;6.640;2024-01-07T02:51:59;12.10;99.90
40589;DHT22;26297;49.450;6.640;2024-01-07T02:55:03;12.60;99.90
40589;DHT22;26297;49.450;6.640;2024-01-07T02:58:08;12.00;99.90
40589;DHT22;26297;49.450;6.640;2024-01-07T03:01:11;12.10;99.90
40589;DHT22;26297;49.450;6.640;2024-01-07T03:04:15;12.70;99.90
40589;DHT22;26297;49.450;6.640;2024-01-07T03:07:18;13.00;99.90
40589;DHT22;26297;49.450;6.640;2024-01-07T03:10:21;12.00;99.90
40589;DHT22;26297;49.450;6.640;2024-01-07T03:13:24;12.20;99.90
40589;DHT22;26297;49.450;6.640;2024-01-07T03:16:27;12.00;99.90
40589;DHT22;26297;49.450;6.640;2024-01-07T03:19:30;12.80;99.90
40589;DHT22;26297;49.450;6.640;2024-01-07T03:22:33;12.10;99.90
40589;DHT22;26297;49.450;6.640;2024-01-07T03:25:36;12.10;99.90
40589;DHT22;26297;49.450;6.640;2024-01-07T03:28:39;12.10;99.90
40589;DHT22;26297;49.450;6.640;2024-01-07T03:31:43;12.10;99.90
40589;DHT22;26297;49.450;6.640;2024-01-07T03:34:45;12.20;99.90
40589;DHT22;26297;49.450;6.640;2024-01-07T03:37:49;12.80;99.90
40589;DHT22;26297;49.450;6.640;2024-01-07T03:40:52;12.50;99.90
40589;DHT22;26297;49.450;6.640;2024-01-07T03:43:55;12.40;99.90
40589;DHT22;26297;49.450;6.640;2024-01-07T03:46:58;12.40;99.90
40589;DHT22;26297;49.450;6.640;2024-01-07T03:50:01;12.10;99.90
40589;DHT22;26297;49.450;6.640;2024-01-07T03:53:04;12.20;99.90
40589;DHT22;26297;49.450;6.640;2024-01-07T03:56:07;12.20;99.90
40589;DHT22;26297;49.450;6.640;2024-01-07T03:59:10;12.00;99.90
40589;DHT22;26297;49.450;6.640;2024-01-07T04:02:13;12.00;99.90
40589;DHT22;26297;49.450;6.640;2024-01-07T04:05:19;12.00;99.90
40589;DHT22;26297;49.450;6.640;2024-01-07T04:08:22;13.60;99.90
40589;DHT22;26297;49.450;6.640;2024-01-07T04:11:25;12.10;99.90
40589;DHT22;26297;49.450;6.640;2024-01-07T04:14:28;13.20;99.90
40589;DHT22;26297;49.450;6.640;2024-01-07T04:17:32;12.10;99.90
40589;DHT22;26297;49.450;6.640;2024-01-07T04:20:35;12.10;99.90
40589;DHT22;26297;49.450;6.640;2024-01-07T04:23:38;12.20;99.90
40589;DHT22;26297;49.450;6.640;2024-01-07T04:26:42;12.10;99.90
40589;DHT22;26297;49.450;6.640;2024-01-07T04:29:45;12.20;99.90
40589;DHT22;26297;49.450;6.640;2024-01-07T04:32:48;12.90;99.90
40589;DHT22;26297;49.450;6.640;2024-01-07T04:35:51;12.60;99.90
40589;DHT22;26297;49.450;6.640;2024-01-07T04:38:54;13.90;99.90
40589;DHT22;26297;49.450;6.640;2024-01-07T04:41:57;12.10;99.90
40589;DHT22;26297;49.450;6.640;2024-01-07T04:45:01;12.10;99.90
40589;DHT22;26297;49.450;6.640;2024-01-07T04:48:04;12.20;99.90
40589;DHT22;26297;49.450;6.640;2024-01-07T04:51:07;12.10;99.90
40589;DHT22;26297;49.450;6.640;2024-01-07T04:54:10;12.10;99.90
40589;DHT22;26297;49.450;6.640;2024-01-07T04:57:13;12.10;99.90
40589;DHT22;26297;49.450;6.640;2024-01-07T05:00:16;12.10;99.90
40589;DHT22;26297;49.450;6.640;2024-01-07T05:03:20;12.00;99.90
40589;DHT22;26297;49.450;6.640;2024-01-07T05:06:23;12.10;99.90
40589;DHT22;26297;49.450;6.640;2024-01-07T05:09:26;12.00;99.90
40589;DHT22;26297;49.450;6.640;2024-01-07T05:12:29;12.10;99.90
40589;DHT22;26297;49.450;6.640;2024-01-07T05:15:32;12.10;99.90
40589;DHT22;26297;49.450;6.640;2024-01-07T05:18:35;12.90;99.90
40589;DHT22;26297;49.450;6.640;2024-01-07T05:21:38;12.10;99.90
40589;DHT22;26297;49.450;6.640;2024-01-07T05:24:42;10.20;99.90
40589;DHT22;26297;49.450;6.640;2024-01-07T05:27:45;12.10;99.90
40589;DHT22;26297;49.450;6.640;2024-01-07T05:30:48;12.70;99.90
40589;DHT22;26297;49.450;6.640;2024-01-07T05:33:51;12.00;99.90
40589;DHT22;26297;49.450;6.640;2024-01-07T05:36:54;12.10;99.90
40589;DHT22;26297;49.450;6.640;2024-01-07T05:39:58;10.30;99.90
40589;DHT22;26297;49.450;6.640;2024-01-07T05:43:01;12.10;99.90
40589;DHT22;26297;49.450;6.640;2024-01-07T05:46:04;12.10;99.90
40589;DHT22;26297;49.450;6.640;2024-01-07T05:49:07;13.70;99.90
40589;DHT22;26297;49.450;6.640;2024-01-07T05:52:11;12.00;99.90
40589;DHT22;26297;49.450;6.640;2024-01-07T05:55:14;12.10;99.90
40589;DHT22;26297;49.450;6.640;2024-01-07T05:58:17;12.00;99.90
40589;DHT22;26297;49.450;6.640;2024-01-07T06:01:20;12.00;99.90
40589;DHT22;26297;49.450;6.640;2024-01-07T06:04:24;13.00;99.90
40589;DHT22;26297;49.450;6.640;2024-01-07T06:07:27;12.00;99.90
40589;DHT22;26297;49.450;6.640;2024-01-07T06:10:30;12.20;99.90
40589;DHT22;26297;49.450;6.640;2024-01-07T06:13:34;12.00;99.90
40589;DHT22;26297;49.450;6.640;2024-01-07T06:16:37;12.10;99.90
40589;DHT22;26297;49.450;6.640;2024-01-07T06:19:40;12.00;99.90
40589;DHT22;26297;49.450;6.640;2024-01-07T06:22:43;13.80;99.90
40589;DHT22;26297;49.450;6.640;2024-01-07T06:25:46;12.10;99.90
40589;DHT22;26297;49.450;6.640;2024-01-07T06:28:50;12.90;99.90
40589;DHT22;26297;49.450;6.640;2024-01-07T06:31:53;12.00;99.90
40589;DHT22;26297;49.450;6.640;2024-01-07T06:34:56;12.00;99.90
40589;DHT22;26297;49.450;6.640;2024-01-07T06:37:59;13.80;99.90
40589;DHT22;26297;49.450;6.640;2024-01-07T06:41:02;12.00;99.90
40589;DHT22;26297;49.450;6.640;2024-01-07T06:44:07;11.90;99.90
40589;DHT22;26297;49.450;6.640;2024-01-07T06:47:10;13.80;99.90
40589;DHT22;26297;49.450;6.640;2024-01-07T06:50:13;12.00;99.90
40589;DHT22;26297;49.450;6.640;2024-01-07T06:53:16;12.00;99.90
40589;DHT22;26297;49.450;6.640;2024-01-07T06:56:20;11.90;99.90
40589;DHT22;26297;49.450;6.640;2024-01-07T06:59:23;12.00;99.90
40589;DHT22;26297;49.450;6.640;2024-01-07T07:02:26;12.00;99.90
40589;DHT22;26297;49.450;6.640;2024-01-07T07:05:29;12.10;99.90
40589;DHT22;26297;49.450;6.640;2024-01-07T07:08:32;13.20;99.90
40589;DHT22;26297;49.450;6.640;2024-01-07T07:11:35;12.00;99.90
40589;DHT22;26297;49.450;6.640;2024-01-07T07:14:38;12.00;99.90
40589;DHT22;26297;49.450;6.640;2024-01-07T07:17:42;12.00;99.90
40589;DHT22;26297;49.450;6.640;2024-01-07T07:20:45;12.10;99.90
40589;DHT22;26297;49.450;6.640;2024-01-07T07:23:48;12.00;99.90
40589;DHT22;26297;49.450;6.640;2024-01-07T07:26:51;11.80;99.90
40589;DHT22;26297;49.450;6.640;2024-01-07T07:29:55;12.10;99.90
40589;DHT22;26297;49.450;6.640;2024-01-07T07:32:58;12.00;99.90
40589;DHT22;26297;49.450;6.640;2024-01-07T07:36:01;12.10;99.90
40589;DHT22;26297;49.450;6.640;2024-01-07T07:39:04;12.00;99.90
40589;DHT22;26297;49.450;6.640;2024-01-07T07:42:07;12.00;99.90
40589;DHT22;26297;49.450;6.640;2024-01-07T07:45:10;12.40;99.90
40589;DHT22;26297;49.450;6.640;2024-01-07T07:48:13;12.00;99.90
40589;DHT22;26297;49.450;6.640;2024-01-07T07:51:17;12.10;99.90
40589;DHT22;26297;49.450;6.640;2024-01-07T07:54:20;13.10;99.90
40589;DHT22;26297;49.450;6.640;2024-01-07T07:57:23;12.00;99.90
40589;DHT22;26297;49.450;6.640;2024-01-07T08:00:27;12.00;99.90
40589;DHT22;26297;49.450;6.640;2024-01-07T08:03:30;12.90;99.90
40589;DHT22;26297;49.450;6.640;2024-01-07T08:06:35;12.20;99.90
40589;DHT22;26297;49.450;6.640;2024-01-07T08:09:38;11.90;99.90
40589;DHT22;26297;49.450;6.640;2024-01-07T08:12:41;12.00;99.90
40589;DHT22;26297;49.450;6.640;2024-01-07T08:15:44;11.90;99.90
40589;DHT22;26297;49.450;6.640;2024-01-07T08:18:47;12.50;99.90
40589;DHT22;26297;49.450;6.640;2024-01-07T08:21:50;12.00;99.90
40589;DHT22;26297;49.450;6.640;2024-01-07T08:24:53;12.00;99.90
40589;DHT22;26297;49.450;6.640;2024-01-07T08:27:56;12.00;99.90
40589;DHT22;26297;49.450;6.640;2024-01-07T08:31:00;12.00;99.90
40589;DHT22;26297;49.450;6.640;2024-01-07T08:34:03;11.90;99.90
40589;DHT22;26297;49.450;6.640;2024-01-07T08:37:09;12.00;99.90
40589;DHT22;26297;49.450;6.640;2024-01-07T08:40:12;11.90;99.90
40589;DHT22;26297;49.450;6.640;2024-01-07T08:43:16;12.00;99.90
40589;DHT22;26297;49.450;6.640;2024-01-07T08:46:20;12.00;99.90
40589;DHT22;26297;49.450;6.640;2024-01-07T08:49:23;11.90;99.90
40589;DHT22;26297;49.450;6.640;2024-01-07T08:52:26;12.20;99.90
40589;DHT22;26297;49.450;6.640;2024-01-07T08:55:29;12.30;99.90
40589;DHT22;26297;49.450;6.640;2024-01-07T08:58:35;12.60;99.90
40589;DHT22;26297;49.450;6.640;2024-01-07T09:01:39;11.90;99.90
40589;DHT22;26297;49.450;6.640;2024-01-07T09:04:43;11.90;99.90
40589;DHT22;26297;49.450;6.640;2024-01-07T09:07:46;11.90;99.90
40589;DHT22;26297;49.450;6.640;2024-01-07T09:10:49;11.90;99.90
40589;DHT22;26297;49.450;6.640;2024-01-07T09:13:53;11.90;99.90
40589;DHT22;26297;49.450;6.640;2024-01-07T09:16:56;11.90;99.90
40589;DHT22;26297;49.450;6.640;2024-01-07T09:19:59;13.00;99.90
40589;DHT22;26297;49.450;6.640;2024-01-07T09:23:03;11.90;99.90
40589;DHT22;26297;49.450;6.640;2024-01-07T09:26:05;12.20;99.90
40589;DHT22;26297;49.450;6.640;2024-01-07T09:29:09;12.10;99.90
40589;DHT22;26297;49.450;6.640;2024-01-07T09:32:13;11.90;99.90
40589;DHT22;26297;49.450;6.640;2024-01-07T09:35:16;12.00;99.90
40589;DHT22;26297;49.450;6.640;2024-01-07T09:38:19;13.40;99.90
40589;DHT22;26297;49.450;6.640;2024-01-07T09:41:22;11.90;99.90
40589;DHT22;26297;49.450;6.640;2024-01-07T09:44:25;12.00;99.90
40589;DHT22;26297;49.450;6.640;2024-01-07T09:47:28;11.90;99.90
40589;DHT22;26297;49.450;6.640;2024-01-07T09:50:32;11.90;99.90
40589;DHT22;26297;49.450;6.640;2024-01-07T09:53:36;11.90;99.90
40589;DHT22;26297;49.450;6.640;2024-01-07T09:56:42;11.80;99.90
40589;DHT22;26297;49.450;6.640;2024-01-07T09:59:46;11.90;99.90
40589;DHT22;26297;49.450;6.640;2024-01-07T10:02:49;12.00;99.90
40589;DHT22;26297;49.450;6.640;2024-01-07T10:05:52;11.90;99.90
40589;DHT22;26297;49.450;6.640;2024-01-07T10:08:55;11.90;99.90
40589;DHT22;26297;49.450;6.640;2024-01-07T10:11:58;11.90;99.90
40589;DHT22;26297;49.450;6.640;2024-01-07T10:15:02;11.90;99.90
40589;DHT22;26297;49.450;6.640;2024-01-07T10:18:06;12.90;99.90
40589;DHT22;26297;49.450;6.640;2024-01-07T10:21:10;11.90;99.90
40589;DHT22;26297;49.450;6.640;2024-01-07T10:24:13;12.70;99.90
40589;DHT22;26297;49.450;6.640;2024-01-07T10:27:16;11.90;99.90
40589;DHT22;26297;49.450;6.640;2024-01-07T10:30:19;11.90;99.90
40589;DHT22;26297;49.450;6.640;2024-01-07T10:33:42;12.20;99.90
40589;DHT22;26297;49.450;6.640;2024-01-07T10:36:48;12.40;99.90
40589;DHT22;26297;49.450;6.640;2024-01-07T10:39:51;12.00;99.90
40589;DHT22;26297;49.450;6.640;2024-01-07T10:42:55;12.40;99.90
40589;DHT22;26297;49.450;6.640;2024-01-07T10:46:00;11.80;99.90
40589;DHT22;26297;49.450;6.640;2024-01-07T10:49:21;11.90;99.90
40589;DHT22;26297;49.450;6.640;2024-01-07T10:52:28;11.90;99.90
40589;DHT22;26297;49.450;6.640;2024-01-07T10:55:33;10.70;99.90
40589;DHT22;26297;49.450;6.640;2024-01-07T10:58:36;11.90;99.90
40589;DHT22;26297;49.450;6.640;2024-01-07T11:01:39;12.60;99.90
40589;DHT22;26297;49.450;6.640;2024-01-07T11:08:06;11.90;99.90
40589;DHT22;26297;49.450;6.640;2024-01-07T11:11:21;9.80;99.90
40589;DHT22;26297;49.450;6.640;2024-01-07T11:14:42;11.90;99.90
40589;DHT22;26297;49.450;6.640;2024-01-07T11:17:48;11.90;99.90
40589;DHT22;26297;49.450;6.640;2024-01-07T11:21:00;12.70;99.90
40589;DHT22;26297;49.450;6.640;2024-01-07T11:24:05;12.30;99.90
40589;DHT22;26297;49.450;6.640;2024-01-07T11:27:08;11.90;99.90
40589;DHT22;26297;49.450;6.640;2024-01-07T11:30:18;12.50;99.90
40589;DHT22;26297;49.450;6.640;2024-01-07T11:33:22;11.80;99.90
40589;DHT22;26297;49.450;6.640;2024-01-07T11:36:25;11.90;99.90
40589;DHT22;26297;49.450;6.640;2024-01-07T11:39:32;12.80;99.90
40589;DHT22;26297;49.450;6.640;2024-01-07T11:42:36;11.60;99.90
40589;DHT22;26297;49.450;6.640;2024-01-07T11:45:39;12.60;99.90
40589;DHT22;26297;49.450;6.640;2024-01-07T11:48:44;13.00;99.90
40589;DHT22;26297;49.450;6.640;2024-01-07T11:51:47;11.90;99.90
40589;DHT22;26297;49.450;6.640;2024-01-07T11:54:51;11.90;99.90
40589;DHT22;26297;49.450;6.640;2024-01-07T11:57:55;11.90;99.90
40589;DHT22;26297;49.450;6.640;2024-01-07T12:00:58;12.40;99.90
40589;DHT22;26297;49.450;6.640;2024-01-07T12:04:01;11.90;99.90
40589;DHT22;26297;49.450;6.640;2024-01-07T12:07:04;12.80;99.90
40589;DHT22;26297;49.450;6.640;2024-01-07T12:10:08;11.80;99.90
40589;DHT22;26297;49.450;6.640;2024-01-07T12:13:14;11.90;99.90
40589;DHT22;26297;49.450;6.640;2024-01-07T12:16:18;11.80;99.90
40589;DHT22;26297;49.450;6.640;2024-01-07T12:19:21;11.80;99.90
40589;DHT22;26297;49.450;6.640;2024-01-07T12:22:27;11.80;99.90
40589;DHT22;26297;49.450;6.640;2024-01-07T12:25:30;11.80;99.90
40589;DHT22;26297;49.450;6.640;2024-01-07T12:28:33;11.80;99.90
40589;DHT22;26297;49.450;6.640;2024-01-07T12:31:36;11.90;99.90
40589;DHT22;26297;49.450;6.640;2024-01-07T12:34:39;11.90;99.90
40589;DHT22;26297;49.450;6.640;2024-01-07T12:37:45;11.90;99.90
40589;DHT22;26297;49.450;6.640;2024-01-07T12:40:58;12.30;99.90
40589;DHT22;26297;49.450;6.640;2024-01-07T12:44:01;11.80;99.90
40589;DHT22;26297;49.450;6.640;2024-01-07T12:47:04;11.10;99.90
40589;DHT22;26297;49.450;6.640;2024-01-07T12:50:14;12.10;99.90
40589;DHT22;26297;49.450;6.640;2024-01-07T12:53:34;12.00;99.90
40589;DHT22;26297;49.450;6.640;2024-01-07T12:56:40;11.90;99.90
40589;DHT22;26297;49.450;6.640;2024-01-07T12:59:43;10.50;99.90
40589;DHT22;26297;49.450;6.640;2024-01-07T13:02:46;11.80;99.90
40589;DHT22;26297;49.450;6.640;2024-01-07T13:05:52;13.50;99.90
40589;DHT22;26297;49.450;6.640;2024-01-07T13:13:18;11.90;99.90
40589;DHT22;26297;49.450;6.640;2024-01-07T13:16:24;12.60;99.90
40589;DHT22;26297;49.450;6.640;2024-01-07T13:19:43;11.90;99.90
40589;DHT22;26297;49.450;6.640;2024-01-07T13:22:54;11.30;99.90
40589;DHT22;26297;49.450;6.640;2024-01-07T13:26:06;12.30;99.90
40589;DHT22;26297;49.450;6.640;2024-01-07T13:33:26;12.00;99.90
40589;DHT22;26297;49.450;6.640;2024-01-07T13:36:30;11.80;99.90
40589;DHT22;26297;49.450;6.640;2024-01-07T13:39:33;11.90;99.90
40589;DHT22;26297;49.450;6.640;2024-01-07T13:42:39;11.90;99.90
40589;DHT22;26297;49.450;6.640;2024-01-07T13:45:41;11.80;99.90
40589;DHT22;26297;49.450;6.640;2024-01-07T13:48:44;11.80;99.90
40589;DHT22;26297;49.450;6.640;2024-01-07T13:51:47;11.80;99.90
40589;DHT22;26297;49.450;6.640;2024-01-07T13:54:50;11.80;99.90
40589;DHT22;26297;49.450;6.640;2024-01-07T13:57:53;12.60;99.90
40589;DHT22;26297;49.450;6.640;2024-01-07T14:00:56;11.80;99.90
40589;DHT22;26297;49.450;6.640;2024-01-07T14:04:00;11.80;99.90
40589;DHT22;26297;49.450;6.640;2024-01-07T14:07:03;11.80;99.90
40589;DHT22;26297;49.450;6.640;2024-01-07T14:10:13;11.90;99.90
40589;DHT22;26297;49.450;6.640;2024-01-07T14:13:16;11.90;99.90
40589;DHT22;26297;49.450;6.640;2024-01-07T14:16:19;12.10;99.90
40589;DHT22;26297;49.450;6.640;2024-01-07T14:19:22;12.00;99.90
40589;DHT22;26297;49.450;6.640;2024-01-07T14:22:25;11.90;99.90
40589;DHT22;26297;49.450;6.640;2024-01-07T14:42:19;12.00;99.90
40589;DHT22;26297;49.450;6.640;2024-01-07T14:45:34;11.90;99.90
40589;DHT22;26297;49.450;6.640;2024-01-07T14:48:37;11.80;99.90
40589;DHT22;26297;49.450;6.640;2024-01-07T14:51:41;11.90;99.90
40589;DHT22;26297;49.450;6.640;2024-01-07T14:54:46;11.80;99.90
40589;DHT22;26297;49.450;6.640;2024-01-07T14:57:55;11.90;99.90
40589;DHT22;26297;49.450;6.640;2024-01-07T15:01:01;11.90;99.90
40589;DHT22;26297;49.450;6.640;2024-01-07T15:04:04;11.70;99.90
40589;DHT22;26297;49.450;6.640;2024-01-07T15:07:09;13.60;99.90
40589;DHT22;26297;49.450;6.640;2024-01-07T15:10:14;11.80;99.90
40589;DHT22;26297;49.450;6.640;2024-01-07T15:13:18;11.90;99.90
40589;DHT22;26297;49.450;6.640;2024-01-07T15:16:26;11.60;99.90
40589;DHT22;26297;49.450;6.640;2024-01-07T15:19:40;11.50;99.90
40589;DHT22;26297;49.450;6.640;2024-01-07T15:22:43;11.90;99.90
40589;DHT22;26297;49.450;6.640;2024-01-07T15:25:49;12.10;99.90
40589;DHT22;26297;49.450;6.640;2024-01-07T15:28:52;11.40;99.90
40589;DHT22;26297;49.450;6.640;2024-01-07T15:32:04;12.10;99.90
40589;DHT22;26297;49.450;6.640;2024-01-07T15:35:08;11.90;99.90
40589;DHT22;26297;49.450;6.640;2024-01-07T15:38:11;11.80;99.90
40589;DHT22;26297;49.450;6.640;2024-01-07T15:41:15;12.70;99.90
40589;DHT22;26297;49.450;6.640;2024-01-07T15:44:18;11.90;99.90
40589;DHT22;26297;49.450;6.640;2024-01-07T15:47:24;11.80;99.90
40589;DHT22;26297;49.450;6.640;2024-01-07T15:50:27;12.60;99.90
40589;DHT22;26297;49.450;6.640;2024-01-07T15:53:30;11.80;99.90
40589;DHT22;26297;49.450;6.640;2024-01-07T15:56:38;11.90;99.90
40589;DHT22;26297;49.450;6.640;2024-01-07T15:59:49;12.60;99.90
40589;DHT22;26297;49.450;6.640;2024-01-07T16:02:52;11.70;99.90
40589;DHT22;26297;49.450;6.640;2024-01-07T16:05:55;11.90;99.90
40589;DHT22;26297;49.450;6.640;2024-01-07T16:08:59;12.80;99.90
40589;DHT22;26297;49.450;6.640;2024-01-07T16:39:31;10.80;99.90
40589;DHT22;26297;49.450;6.640;2024-01-07T16:42:34;13.10;99.90
40589;DHT22;26297;49.450;6.640;2024-01-07T16:45:38;10.30;99.90
40589;DHT22;26297;49.450;6.640;2024-01-07T16:48:41;11.90;99.90
40589;DHT22;26297;49.450;6.640;2024-01-07T16:51:47;13.90;99.90
40589;DHT22;26297;49.450;6.640;2024-01-07T16:54:50;11.80;99.90
40589;DHT22;26297;49.450;6.640;2024-01-07T16:57:53;11.80;99.90
40589;DHT22;26297;49.450;6.640;2024-01-07T17:00:56;11.80;99.90
40589;DHT22;26297;49.450;6.640;2024-01-07T17:04:00;11.50;99.90
40589;DHT22;26297;49.450;6.640;2024-01-07T17:07:03;12.60;99.90
40589;DHT22;26297;49.450;6.640;2024-01-07T17:10:06;11.90;99.90
40589;DHT22;26297;49.450;6.640;2024-01-07T17:13:29;11.80;99.90
40589;DHT22;26297;49.450;6.640;2024-01-07T17:16:51;11.00;99.90
40589;DHT22;26297;49.450;6.640;2024-01-07T17:20:01;11.80;99.90
40589;DHT22;26297;49.450;6.640;2024-01-07T17:23:10;11.90;99.90
40589;DHT22;26297;49.450;6.640;2024-01-07T17:26:14;12.00;99.90
40589;DHT22;26297;49.450;6.640;2024-01-07T17:29:17;11.80;99.90
40589;DHT22;26297;49.450;6.640;2024-01-07T17:32:20;11.80;99.90
40589;DHT22;26297;49.450;6.640;2024-01-07T17:35:25;12.20;99.90
40589;DHT22;26297;49.450;6.640;2024-01-07T17:38:28;11.80;99.90
40589;DHT22;26297;49.450;6.640;2024-01-07T17:41:34;11.90;99.90
40589;DHT22;26297;49.450;6.640;2024-01-07T17:48:09;12.40;99.90
40589;DHT22;26297;49.450;6.640;2024-01-07T17:51:17;12.80;99.90
40589;DHT22;26297;49.450;6.640;2024-01-07T17:54:20;11.70;99.90
40589;DHT22;26297;49.450;6.640;2024-01-07T17:57:24;12.00;99.90
40589;DHT22;26297;49.450;6.640;2024-01-07T18:00:27;10.30;99.90
40589;DHT22;26297;49.450;6.640;2024-01-07T18:03:30;11.70;99.90
40589;DHT22;26297;49.450;6.640;2024-01-07T18:06:42;11.70;99.90
40589;DHT22;26297;49.450;6.640;2024-01-07T18:09:45;11.70;99.90
40589;DHT22;26297;49.450;6.640;2024-01-07T18:13:06;11.60;99.90
40589;DHT22;26297;49.450;6.640;2024-01-07T18:16:12;11.70;99.90
40589;DHT22;26297;49.450;6.640;2024-01-07T18:19:16;11.70;99.90
40589;DHT22;26297;49.450;6.640;2024-01-07T18:22:19;10.00;99.90
40589;DHT22;26297;49.450;6.640;2024-01-07T18:25:22;11.70;99.90
40589;DHT22;26297;49.450;6.640;2024-01-07T18:28:25;12.80;99.90
40589;DHT22;26297;49.450;6.640;2024-01-07T18:31:29;10.10;99.90
40589;DHT22;26297;49.450;6.640;2024-01-07T18:34:32;11.70;99.90
40589;DHT22;26297;49.450;6.640;2024-01-07T18:37:36;12.90;99.90
40589;DHT22;26297;49.450;6.640;2024-01-07T18:40:39;11.40;99.30
40589;DHT22;26297;49.450;6.640;2024-01-07T18:47:13;13.60;99.90
40589;DHT22;26297;49.450;6.640;2024-01-07T18:50:23;11.60;99.20
40589;DHT22;26297;49.450;6.640;2024-01-07T18:53:26;11.80;98.60
40589;DHT22;26297;49.450;6.640;2024-01-07T18:56:39;12.40;99.90
40589;DHT22;26297;49.450;6.640;2024-01-07T18:59:42;11.70;98.50
40589;DHT22;26297;49.450;6.640;2024-01-07T19:02:45;11.80;99.80
40589;DHT22;26297;49.450;6.640;2024-01-07T19:05:48;11.60;99.80
40589;DHT22;26297;49.450;6.640;2024-01-07T19:08:51;11.80;98.60
40589;DHT22;26297;49.450;6.640;2024-01-07T19:11:55;11.90;98.50
40589;DHT22;26297;49.450;6.640;2024-01-07T19:14:59;12.40;98.80
40589;DHT22;26297;49.450;6.640;2024-01-07T19:18:08;11.70;99.90
40589;DHT22;26297;49.450;6.640;2024-01-07T20:01:44;11.60;98.40
40589;DHT22;26297;49.450;6.640;2024-01-07T20:04:48;12.60;99.60
40589;DHT22;26297;49.450;6.640;2024-01-07T20:07:54;10.00;98.70
40589;DHT22;26297;49.450;6.640;2024-01-07T20:10:58;11.80;99.30
40589;DHT22;26297;49.450;6.640;2024-01-07T20:14:01;10.00;98.90
40589;DHT22;26297;49.450;6.640;2024-01-07T20:17:04;11.30;98.50
40589;DHT22;26297;49.450;6.640;2024-01-07T20:20:07;11.80;99.90
40589;DHT22;26297;49.450;6.640;2024-01-07T20:41:29;11.60;98.30
40589;DHT22;26297;49.450;6.640;2024-01-07T20:44:33;12.60;99.90
40589;DHT22;26297;49.450;6.640;2024-01-07T20:47:36;11.50;97.10
40589;DHT22;26297;49.450;6.640;2024-01-07T20:50:39;12.30;99.00
40589;DHT22;26297;49.450;6.640;2024-01-07T20:53:42;13.40;99.80
40589;DHT22;26297;49.450;6.640;2024-01-07T20:56:46;11.60;97.70
40589;DHT22;26297;49.450;6.640;2024-01-07T20:59:49;11.60;98.10
40589;DHT22;26297;49.450;6.640;2024-01-07T21:02:52;12.20;97.40
40589;DHT22;26297;49.450;6.640;2024-01-07T21:05:55;11.50;97.70
40589;DHT22;26297;49.450;6.640;2024-01-07T21:08:59;11.60;97.10
40589;DHT22;26297;49.450;6.640;2024-01-07T21:12:02;11.80;97.90
40589;DHT22;26297;49.450;6.640;2024-01-07T21:15:06;11.50;96.70
40589;DHT22;26297;49.450;6.640;2024-01-07T21:18:09;11.50;96.70
40589;DHT22;26297;49.450;6.640;2024-01-07T21:21:14;11.50;96.20
40589;DHT22;26297;49.450;6.640;2024-01-07T21:24:18;11.70;95.00